Time;durP1;ratioP1;P1;durP2;ratioP2;P2;SDS_P1;SDS_P2;PMS_P1;PMS_P2;Temp;Humidity;BMP_temperature;BMP_pressure;BME280_temperature;BME280_humidity;BME280_pressure;Samples;Min_cycle;Max_cycle;Signal;HPM_P1;HPM_P2
2021/11/02 00:02:22;;;;;;;9.73;1.92;;;;;;;6.69;99.71;61666.75;5094302;28;20072;-71
2021/11/02 00:04:52;;;;;;;5.55;1.70;;;;;;;6.72;100.00;61668.94;5094818;28;20055;-72
2021/11/02 00:07:23;;;;;;;7.40;2.00;;;;;;;6.74;100.00;61671.38;5094196;28;20055;-71
2021/11/02 00:09:57;;;;;;;6.35;2.28;;;;;;;6.76;99.80;61673.69;5098166;28;20468;-71
2021/11/02 00:12:28;;;;;;;7.38;2.40;;;;;;;6.78;99.66;61676.28;5076421;28;20524;-72
2021/11/02 00:14:59;;;;;;;10.60;1.73;;;;;;;6.81;99.38;61678.97;5093649;28;20072;-72
2021/11/02 00:17:32;;;;;;;10.15;2.15;;;;;;;6.83;99.70;61681.16;5092942;28;20043;-72
2021/11/02 00:20:04;;;;;;;10.95;2.80;;;;;;;6.85;99.67;61682.91;5093502;28;20181;-73
2021/11/02 00:22:38;;;;;;;9.33;2.50;;;;;;;6.87;100.00;61684.84;5093495;28;20139;-72
2021/11/02 00:25:11;;;;;;;11.90;2.42;;;;;;;6.89;99.83;61687.03;5091697;28;20162;-72
2021/11/02 00:27:41;;;;;;;;;;;;;;;6.90;99.96;61688.44;5094958;28;20135;-72
2021/11/02 00:30:16;;;;;;;5.75;2.05;;;;;;;6.91;100.00;61689.63;5096506;28;20011;-73
2021/11/02 00:32:50;;;;;;;6.65;2.60;;;;;;;6.92;100.00;61690.84;5098105;28;20462;-72
2021/11/02 00:35:22;;;;;;;7.85;1.88;;;;;;;6.94;100.00;61692.47;5077201;28;20079;-72
2021/11/02 00:37:53;;;;;;;5.90;2.33;;;;;;;6.95;100.00;61693.41;5095266;28;20122;-72
2021/11/02 00:40:26;;;;;;;9.43;3.58;;;;;;;6.95;100.00;61693.72;5095247;28;20130;-72
2021/11/02 00:43:00;;;;;;;7.65;2.90;;;;;;;6.95;100.00;61694.00;5101119;28;20139;-73
2021/11/02 00:45:34;;;;;;;11.93;3.25;;;;;;;6.96;100.00;61694.41;5094397;28;20366;-72
2021/11/02 00:48:11;;;;;;;10.35;3.30;;;;;;;6.96;100.00;61694.50;5077904;28;20435;-72
2021/11/02 00:50:46;;;;;;;10.85;3.50;;;;;;;6.96;100.00;61694.34;5092301;28;20048;-72
2021/11/02 00:53:17;;;;;;;9.57;3.15;;;;;;;6.96;100.00;61694.34;5100670;28;20113;-72
2021/11/02 00:55:50;;;;;;;11.85;3.90;;;;;;;6.96;100.00;61694.88;5096585;28;20040;-72
2021/11/02 00:58:22;;;;;;;8.43;3.33;;;;;;;6.97;100.00;61695.09;5099333;28;20506;-72
2021/11/02 01:00:53;;;;;;;8.15;2.88;;;;;;;6.98;100.00;61696.38;5096578;28;20100;-72
2021/11/02 01:03:24;;;;;;;11.43;3.42;;;;;;;6.98;100.00;61696.63;5096680;28;20047;-72
2021/11/02 01:05:55;;;;;;;8.05;3.30;;;;;;;6.99;100.00;61697.72;5092824;28;20139;-72
2021/11/02 01:08:25;;;;;;;10.38;3.40;;;;;;;7.00;100.00;61698.25;5092965;28;20075;-72
2021/11/02 01:10:56;;;;;;;13.60;3.67;;;;;;;7.01;100.00;61699.78;5091755;28;20501;-71
2021/11/02 01:13:28;;;;;;;8.55;3.42;;;;;;;7.02;100.00;61700.91;5097326;28;20197;-72
2021/11/02 01:16:02;;;;;;;8.70;3.72;;;;;;;7.02;100.00;61701.63;5087254;28;20541;-72
2021/11/02 01:18:34;;;;;;;8.57;4.18;;;;;;;7.03;100.00;61702.06;5070889;28;20087;-73
2021/11/02 01:21:05;;;;;;;12.40;3.53;;;;;;;7.03;100.00;61702.06;5078812;28;20127;-72
2021/11/02 01:23:38;;;;;;;10.32;4.82;;;;;;;7.03;100.00;61702.41;5083119;28;20044;-72
2021/11/02 01:26:09;;;;;;;9.02;3.55;;;;;;;7.03;100.00;61702.97;5099263;28;20521;-72
2021/11/02 01:28:40;;;;;;;10.32;3.42;;;;;;;7.03;100.00;61703.72;5078560;28;20058;-72
2021/11/02 01:31:11;;;;;;;15.30;3.78;;;;;;;7.03;100.00;61703.88;5082917;28;20072;-72
2021/11/02 01:33:41;;;;;;;11.57;4.28;;;;;;;7.02;100.00;61702.78;5088405;28;20048;-74
2021/11/02 01:36:12;;;;;;;8.98;3.15;;;;;;;7.02;100.00;61702.69;5063154;28;20467;-72
2021/11/02 01:38:45;;;;;;;10.57;3.10;;;;;;;7.01;100.00;61702.13;5086672;28;20131;-72
2021/11/02 01:41:18;;;;;;;10.13;4.18;;;;;;;7.01;100.00;61701.88;5086638;28;20135;-72
2021/11/02 01:43:47;;;;;;;8.82;2.70;;;;;;;7.01;100.00;61701.97;5057209;28;20130;-72
2021/11/02 01:46:31;;;;;;;10.88;2.90;;;;;;;7.01;100.00;61702.09;5087222;28;20063;-72
2021/11/02 01:49:05;;;;;;;10.30;3.05;;;;;;;7.02;100.00;61702.34;5069567;28;20060;-72
2021/11/02 01:51:35;;;;;;;5.78;2.35;;;;;;;7.02;100.00;61702.59;5086024;28;20123;-72
2021/11/02 01:54:07;;;;;;;15.57;2.63;;;;;;;7.03;100.00;61702.72;5086220;28;20071;-72
2021/11/02 01:56:45;;;;;;;9.63;2.50;;;;;;;7.02;100.00;61702.41;5079174;28;20130;-72
2021/11/02 01:59:19;;;;;;;7.93;2.50;;;;;;;7.02;100.00;61701.41;5083064;28;20052;-72
2021/11/02 02:02:01;;;;;;;11.35;3.08;;;;;;;7.02;100.00;61701.09;5084823;28;20075;-73
2021/11/02 02:04:51;;;;;;;7.40;2.97;;;;;;;7.01;100.00;61700.53;5085419;28;20460;-72
2021/11/02 02:07:41;;;;;;;5.00;2.55;;;;;;;7.01;100.00;61700.69;5086868;28;20075;-72
2021/11/02 02:10:11;;;;;;;10.93;3.50;;;;;;;7.01;100.00;61701.03;5087042;28;20072;-72
2021/11/02 02:13:16;;;;;;;7.30;2.25;;;;;;;7.01;100.00;61700.84;5087999;28;20139;-71
2021/11/02 02:16:08;;;;;;;8.52;2.45;;;;;;;7.01;100.00;61700.75;5031485;28;20127;-72
2021/11/02 02:18:46;;;;;;;6.78;2.30;;;;;;;7.01;100.00;61700.31;5086171;28;20171;-73
2021/11/02 02:21:40;;;;;;;7.35;2.13;;;;;;;7.00;100.00;61700.53;5066330;28;20139;-72
2021/11/02 02:24:13;;;;;;;;;;;;;;;7.00;100.00;61699.69;5058037;28;20078;-72
2021/11/02 02:27:10;;;;;;;5.72;1.63;;;;;;;6.99;100.00;61698.78;5063248;28;20061;-72
2021/11/02 02:29:43;;;;;;;5.57;2.42;;;;;;;6.98;100.00;61698.41;5085463;28;20048;-72
2021/11/02 02:32:21;;;;;;;6.55;1.75;;;;;;;6.97;100.00;61696.88;5086735;28;20131;-72
2021/11/02 02:34:56;;;;;;;7.68;2.13;;;;;;;6.97;100.00;61696.59;5069118;28;20048;-72
2021/11/02 02:37:30;;;;;;;7.72;2.42;;;;;;;6.96;100.00;61695.50;5086317;28;20143;-72
2021/11/02 02:40:03;;;;;;;6.10;2.60;;;;;;;6.95;100.00;61694.03;5075829;28;20055;-71
2021/11/02 02:42:35;;;;;;;8.93;2.90;;;;;;;6.94;100.00;61693.22;5067205;28;20052;-72
2021/11/02 02:45:07;;;;;;;8.03;3.13;;;;;;;6.94;100.00;61692.59;5086044;28;20076;-72
2021/11/02 02:47:39;;;;;;;6.90;2.55;;;;;;;6.93;100.00;61691.78;5069476;28;20400;-72
2021/11/02 02:50:13;;;;;;;9.07;3.33;;;;;;;6.93;100.00;61691.94;5074312;28;20134;-72
2021/11/02 02:52:47;;;;;;;8.60;2.92;;;;;;;6.93;100.00;61691.13;5081956;28;20096;-73
2021/11/02 02:55:20;;;;;;;12.05;3.92;;;;;;;6.91;100.00;61690.03;5071969;28;20219;-72
2021/11/02 02:57:53;;;;;;;;;;;;;;;6.91;100.00;61690.34;5063268;28;20473;-72
2021/11/02 03:00:27;;;;;;;9.30;2.70;;;;;;;6.91;100.00;61690.19;5062033;28;20003;-72
2021/11/02 03:02:56;;;;;;;12.13;4.75;;;;;;;6.91;100.00;61689.19;5091112;28;20047;-72
2021/11/02 03:05:25;;;;;;;8.52;3.53;;;;;;;6.90;100.00;61688.97;5078473;28;20051;-72
2021/11/02 03:07:54;;;;;;;10.90;4.25;;;;;;;6.91;100.00;61689.16;5092151;28;20414;-72
2021/11/02 03:10:23;;;;;;;12.10;4.65;;;;;;;6.91;100.00;61688.88;5087773;28;20182;-72
2021/11/02 03:12:52;;;;;;;6.88;3.70;;;;;;;6.91;100.00;61689.19;5091251;28;20036;-72
2021/11/02 03:18:06;;;;;;;10.73;4.78;;;;;;;6.92;100.00;61690.69;5072009;28;20079;-72
2021/11/02 03:56:59;;;;;;;10.32;4.97;;;;;;;6.89;99.44;61687.03;5072459;28;20139;-72
2021/11/02 04:24:35;;;;;;;9.60;5.82;;;;;;;6.78;98.32;61677.25;5071555;28;20056;-72
2021/11/02 05:54:02;;;;;;;12.25;5.55;;;;;;;6.58;98.71;61656.78;5011943;28;20045;-72
2021/11/02 05:59:42;;;;;;;12.95;4.88;;;;;;;6.60;98.67;61658.38;5089401;28;20496;-72
2021/11/02 06:02:17;;;;;;;10.02;3.83;;;;;;;6.62;98.76;61660.22;5064922;28;20044;-73
2021/11/02 06:29:53;;;;;;;9.35;2.92;;;;;;;6.65;99.14;61661.84;5076486;28;20427;-72
2021/11/02 06:32:28;;;;;;;7.63;2.17;;;;;;;6.66;99.00;61663.53;5071935;28;20048;-73
2021/11/02 06:43:21;;;;;;;14.05;2.13;;;;;;;6.72;97.86;61669.72;5071694;28;20084;-72
2021/11/02 06:46:10;;;;;;;8.95;2.20;;;;;;;6.72;98.53;61669.84;5085978;28;20080;-73
2021/11/02 07:18:39;;;;;;;9.27;1.60;;;;;;;6.88;97.27;61687.31;5079666;28;20127;-72
2021/11/02 07:21:12;;;;;;;10.48;1.60;;;;;;;6.91;96.91;61690.47;5059964;28;20080;-72
2021/11/02 07:23:52;;;;;;;9.38;1.55;;;;;;;6.94;96.44;61693.66;5038188;28;20048;-72
2021/11/02 08:46:13;;;;;;;12.50;3.83;;;;;;;7.14;100.00;61715.72;5073506;28;20123;-72
2021/11/02 08:48:41;;;;;;;5.73;1.80;;;;;;;7.14;100.00;61715.72;5079240;28;20052;-73
2021/11/02 08:51:08;;;;;;;8.98;2.00;;;;;;;7.13;100.00;61714.72;5064699;28;20120;-72
2021/11/02 08:53:36;;;;;;;8.52;2.92;;;;;;;7.13;100.00;61714.34;5075663;28;20514;-72
2021/11/02 08:56:08;;;;;;;6.45;2.00;;;;;;;7.13;100.00;61714.09;5072221;28;20044;-72
2021/11/02 08:58:35;;;;;;;8.43;1.88;;;;;;;7.12;100.00;61713.00;5070451;28;20064;-72
2021/11/02 09:01:03;;;;;;;4.72;1.73;;;;;;;7.11;100.00;61711.75;5072580;28;20519;-72
2021/11/02 09:03:36;;;;;;;4.25;1.38;;;;;;;7.10;100.00;61711.41;5086394;28;20524;-72
2021/11/02 09:06:07;;;;;;;2.00;0.85;;;;;;;7.08;99.43;61710.09;5089936;28;20052;-72
2021/11/02 09:08:41;;;;;;;2.92;0.73;;;;;;;7.06;99.29;61706.78;5089739;28;20069;-72
2021/11/02 09:11:13;;;;;;;2.22;0.60;;;;;;;7.03;98.97;61703.78;5082789;28;20143;-72
2021/11/02 09:13:47;;;;;;;3.30;0.60;;;;;;;6.99;98.86;61699.84;5076421;28;20123;-72
2021/11/02 09:16:16;;;;;;;3.83;0.50;;;;;;;6.94;97.93;61694.94;5089898;28;20087;-72
2021/11/02 09:18:44;;;;;;;1.85;0.50;;;;;;;6.90;98.91;61690.50;5087913;28;20055;-72
2021/11/02 09:21:12;;;;;;;3.42;1.40;;;;;;;6.86;100.00;61686.41;5065192;28;20115;-72
2021/11/02 09:23:44;;;;;;;4.20;0.45;;;;;;;6.82;100.00;61682.50;5082351;28;20122;-72
2021/11/02 09:26:15;;;;;;;4.38;0.70;;;;;;;6.78;100.00;61678.53;5069266;28;20442;-72
2021/11/02 09:28:43;;;;;;;2.60;0.50;;;;;;;6.75;99.87;61675.41;5089085;28;20085;-72
2021/11/02 09:31:12;;;;;;;8.27;0.40;;;;;;;6.72;99.84;61671.72;5070858;28;20048;-73
2021/11/02 09:33:39;;;;;;;1.73;0.50;;;;;;;6.68;99.29;61668.38;5070418;28;20050;-72
2021/11/02 09:36:08;;;;;;;4.95;1.58;;;;;;;6.66;100.00;61665.38;5071151;28;20090;-72
2021/11/02 09:38:41;;;;;;;3.83;0.60;;;;;;;6.63;99.63;61662.66;5074701;28;20086;-72
2021/11/02 09:41:25;;;;;;;2.75;0.50;;;;;;;6.60;99.02;61660.25;5088011;28;20125;-72
2021/11/02 09:44:04;;;;;;;1.52;0.45;;;;;;;6.58;96.43;61657.25;5095850;28;20155;-72
2021/11/02 09:47:23;;;;;;;1.27;0.47;;;;;;;6.54;96.28;61653.31;5070221;28;20230;-72
2021/11/02 09:50:25;;;;;;;1.13;0.30;;;;;;;6.51;97.10;61649.78;5071709;28;20139;-72
2021/11/02 09:53:20;;;;;;;1.50;0.52;;;;;;;6.48;97.27;61646.97;5047075;28;20076;-72
2021/11/02 09:56:22;;;;;;;6.20;0.70;;;;;;;6.45;97.21;61644.34;5070204;28;20082;-72
2021/11/02 09:59:23;;;;;;;2.55;0.50;;;;;;;6.43;97.20;61641.94;5083989;28;20079;-72
2021/11/02 10:02:29;;;;;;;2.10;0.50;;;;;;;6.41;97.77;61639.47;5090613;28;20067;-73
2021/11/02 10:05:17;;;;;;;2.10;0.30;;;;;;;6.39;97.58;61637.59;5093904;28;20789;-72
2021/11/02 10:08:09;;;;;;;1.33;0.50;;;;;;;6.36;97.22;61635.28;5088407;28;20048;-73
2021/11/02 10:10:55;;;;;;;1.02;0.40;;;;;;;6.34;97.02;61633.00;5080479;28;20052;-73
2021/11/02 10:14:04;;;;;;;2.97;0.60;;;;;;;6.32;97.28;61630.81;5090418;28;20043;-73
2021/11/02 10:16:59;;;;;;;1.92;0.40;;;;;;;6.31;98.29;61630.03;5073195;28;20099;-73
2021/11/02 10:20:00;;;;;;;1.73;0.40;;;;;;;6.30;98.77;61628.66;5093032;28;20127;-73
2021/11/02 10:22:54;;;;;;;2.67;0.60;;;;;;;6.29;99.37;61627.69;5084738;28;20135;-72
2021/11/02 10:25:53;;;;;;;1.15;0.40;;;;;;;6.28;99.01;61626.03;5081541;28;20576;-72
2021/11/02 10:28:23;;;;;;;2.05;0.70;;;;;;;6.27;100.00;61624.94;5094004;28;20482;-71
2021/11/02 10:31:32;;;;;;;1.83;0.57;;;;;;;6.27;100.00;61624.78;5093927;28;20051;-72
2021/11/02 10:34:12;;;;;;;2.00;0.40;;;;;;;6.25;100.00;61623.47;5084480;28;20045;-71
2021/11/02 10:37:28;;;;;;;1.73;0.60;;;;;;;6.23;100.00;61621.50;5059038;28;20194;-71
2021/11/02 10:40:03;;;;;;;3.88;1.10;;;;;;;6.21;100.00;61619.69;5078467;28;20135;-71
2021/11/02 10:42:51;;;;;;;3.35;0.43;;;;;;;6.20;99.94;61618.63;5076724;28;20052;-71
2021/11/02 10:45:19;;;;;;;1.17;0.43;;;;;;;6.20;99.56;61618.53;5094933;28;20071;-71
2021/11/02 10:48:11;;;;;;;1.65;0.40;;;;;;;6.21;99.88;61619.22;5071876;28;20048;-71
2021/11/02 10:50:46;;;;;;;2.08;0.40;;;;;;;6.22;99.18;61620.44;5072087;28;20094;-71
2021/11/02 10:53:38;;;;;;;1.90;0.30;;;;;;;6.20;97.89;61619.56;5082678;28;20153;-71
2021/11/02 10:56:45;;;;;;;0.82;0.22;;;;;;;6.18;99.07;61617.66;5061524;28;20142;-71
2021/11/02 10:59:17;;;;;;;0.73;0.50;;;;;;;6.16;99.41;61614.94;5076114;28;20098;-71
2021/11/02 11:01:46;;;;;;;1.25;0.40;;;;;;;6.14;100.00;61612.50;5072575;28;20437;-71
2021/11/02 11:04:19;;;;;;;2.58;0.40;;;;;;;6.12;100.00;61611.44;5089848;28;20051;-72
2021/11/02 11:06:48;;;;;;;1.55;0.50;;;;;;;6.11;100.00;61609.97;5088938;28;20071;-72
2021/11/02 11:09:17;;;;;;;1.15;0.40;;;;;;;6.11;100.00;61609.53;5075784;28;20048;-71
2021/11/02 11:11:46;;;;;;;0.65;0.30;;;;;;;6.11;100.00;61609.69;5037995;28;20052;-71
2021/11/02 11:14:15;;;;;;;2.15;0.40;;;;;;;6.11;100.00;61609.53;5092052;28;20040;-71
2021/11/02 11:16:49;;;;;;;2.10;0.70;;;;;;;6.13;100.00;61611.56;5069525;28;20452;-72
2021/11/02 11:19:28;;;;;;;2.08;0.80;;;;;;;6.15;99.31;61614.53;5070280;28;20085;-71
2021/11/02 11:21:59;;;;;;;2.97;0.77;;;;;;;6.18;98.88;61617.25;5089040;28;20478;-72
2021/11/02 11:24:35;;;;;;;3.45;0.50;;;;;;;6.20;98.44;61619.19;5085139;28;20167;-72
2021/11/02 11:27:07;;;;;;;1.00;0.50;;;;;;;6.21;98.85;61620.72;5074595;28;20052;-71
2021/11/02 11:29:43;;;;;;;0.77;0.30;;;;;;;6.22;98.15;61621.47;5066981;28;20080;-72
2021/11/02 11:32:11;;;;;;;0.30;0.20;;;;;;;6.23;97.81;61622.28;5086024;28;20079;-72
2021/11/02 11:34:42;;;;;;;1.52;0.30;;;;;;;6.22;98.10;61621.94;5067882;28;20152;-72
2021/11/02 11:37:12;;;;;;;2.08;0.40;;;;;;;6.21;98.65;61620.97;5085089;28;20059;-72
2021/11/02 11:39:42;;;;;;;2.38;0.50;;;;;;;6.21;99.08;61621.13;5074039;28;20047;-71
2021/11/02 11:42:14;;;;;;;1.33;0.52;;;;;;;6.22;99.68;61621.25;5070226;28;20068;-71
2021/11/02 11:44:46;;;;;;;0.50;0.30;;;;;;;6.22;98.93;61621.69;5062969;28;20074;-71
2021/11/02 11:47:20;;;;;;;0.90;0.40;;;;;;;6.22;99.87;61622.06;5074803;28;20047;-71
2021/11/02 11:50:22;;;;;;;0.73;0.40;;;;;;;6.22;99.48;61622.22;5085119;28;20126;-71
2021/11/02 11:52:55;;;;;;;0.40;0.30;;;;;;;6.22;99.28;61621.72;5066410;28;20186;-71
2021/11/02 11:55:25;;;;;;;0.52;0.30;;;;;;;6.22;99.71;61622.03;5071859;28;20079;-71
2021/11/02 11:58:03;;;;;;;0.88;0.20;;;;;;;6.21;99.09;61621.63;5090874;28;20090;-71
2021/11/02 12:00:32;;;;;;;0.82;0.30;;;;;;;6.21;100.00;61621.22;5068934;28;20188;-71
2021/11/02 12:03:16;;;;;;;0.90;0.40;;;;;;;6.20;100.00;61620.38;5051118;28;20064;-71
2021/11/02 12:06:02;;;;;;;0.85;0.30;;;;;;;6.21;100.00;61620.81;5058827;28;20545;-71
2021/11/02 12:09:08;;;;;;;2.47;0.30;;;;;;;6.21;100.00;61620.97;5070582;28;20139;-71
2021/11/02 12:11:35;;;;;;;1.75;0.50;;;;;;;6.22;100.00;61621.88;5101673;28;20079;-70
2021/11/02 12:14:12;;;;;;;0.73;0.40;;;;;;;6.22;100.00;61622.16;5109749;28;20117;-71
2021/11/02 12:16:40;;;;;;;1.67;0.60;;;;;;;6.23;100.00;61622.81;5084423;28;20044;-71
2021/11/02 12:19:12;;;;;;;1.15;0.55;;;;;;;6.24;100.00;61624.59;5069456;28;20524;-71
2021/11/02 12:21:41;;;;;;;3.85;0.70;;;;;;;6.25;100.00;61625.97;5087202;28;20087;-71
2021/11/02 12:24:13;;;;;;;0.98;0.40;;;;;;;6.27;100.00;61627.00;5062792;28;20104;-71
2021/11/02 12:26:50;;;;;;;1.40;0.60;;;;;;;6.29;100.00;61629.13;5081273;28;20051;-71
2021/11/02 12:29:20;;;;;;;3.08;0.68;;;;;;;6.30;100.00;61630.50;5089285;28;20083;-71
2021/11/02 12:32:04;;;;;;;1.88;0.60;;;;;;;6.32;99.98;61632.53;5079274;28;20135;-71
2021/11/02 12:34:55;;;;;;;1.40;0.50;;;;;;;6.34;100.00;61634.88;5069835;28;20461;-71
2021/11/02 12:37:22;;;;;;;1.77;0.60;;;;;;;6.38;100.00;61638.63;5086085;28;20080;-71
2021/11/02 12:39:50;;;;;;;1.25;0.50;;;;;;;6.42;100.00;61642.00;5070394;28;20524;-71
2021/11/02 12:42:26;;;;;;;1.65;0.60;;;;;;;6.45;99.55;61645.50;5064880;28;20084;-71
2021/11/02 12:44:54;;;;;;;3.08;0.50;;;;;;;6.50;99.18;61650.69;5065301;28;20058;-71
2021/11/02 12:47:23;;;;;;;1.80;0.82;;;;;;;6.53;98.57;61653.25;5079549;28;20058;-71
2021/11/02 12:49:53;;;;;;;3.03;0.70;;;;;;;6.56;99.28;61656.63;5088525;28;20567;-71
2021/11/02 12:52:25;;;;;;;1.85;0.60;;;;;;;6.60;98.82;61661.22;5080802;28;20135;-71
2021/11/02 12:55:05;;;;;;;2.50;0.45;;;;;;;6.64;98.95;61664.63;5086978;28;20078;-71
2021/11/02 12:57:54;;;;;;;0.73;0.40;;;;;;;6.66;99.80;61666.66;5089483;28;20072;-71
2021/11/02 13:00:29;;;;;;;1.95;0.50;;;;;;;6.67;99.97;61667.97;5069274;28;20096;-71
2021/11/02 13:03:02;;;;;;;0.98;0.50;;;;;;;6.69;100.00;61669.63;5077655;28;20450;-72
2021/11/02 13:05:31;;;;;;;1.40;0.60;;;;;;;6.72;100.00;61672.56;5073939;28;20062;-71
2021/11/02 13:08:08;;;;;;;1.35;0.50;;;;;;;6.75;100.00;61675.97;5069437;28;20080;-71
2021/11/02 13:10:36;;;;;;;0.80;0.32;;;;;;;6.77;100.00;61678.72;5067006;28;20135;-71
2021/11/02 13:13:07;;;;;;;0.80;0.40;;;;;;;6.78;100.00;61679.84;5083815;28;20134;-71
2021/11/02 13:15:55;;;;;;;2.33;1.27;;;;;;;6.79;99.98;61680.34;5082065;28;20127;-71
2021/11/02 13:18:39;;;;;;;4.10;1.17;;;;;;;6.79;100.00;61680.56;5081033;28;20052;-71
2021/11/02 13:21:21;;;;;;;4.25;0.63;;;;;;;6.79;100.00;61679.88;5086901;28;20100;-71
2021/11/02 13:23:55;;;;;;;1.73;0.60;;;;;;;6.80;100.00;61681.19;5073623;28;20094;-71
2021/11/02 13:26:23;;;;;;;1.13;0.50;;;;;;;6.81;99.85;61681.84;5086699;28;20064;-72
2021/11/02 13:28:51;;;;;;;0.88;0.50;;;;;;;6.83;100.00;61683.75;5084715;28;20132;-71
2021/11/02 13:31:32;;;;;;;1.13;0.43;;;;;;;6.84;99.44;61684.44;5080503;28;20040;-71
2021/11/02 13:34:16;;;;;;;1.40;0.43;;;;;;;6.84;99.73;61684.84;5083130;28;20471;-72
2021/11/02 13:36:44;;;;;;;1.77;0.50;;;;;;;6.84;100.00;61684.56;5080384;28;20090;-71
2021/11/02 13:39:13;;;;;;;1.33;0.68;;;;;;;6.84;100.00;61684.13;5082964;28;20145;-71
2021/11/02 13:41:49;;;;;;;1.92;0.90;;;;;;;6.84;100.00;61684.56;5054313;28;20140;-71
2021/11/02 13:44:18;;;;;;;1.65;0.40;;;;;;;6.83;100.00;61683.63;5067132;28;20074;-71
2021/11/02 13:46:48;;;;;;;3.58;0.43;;;;;;;6.81;100.00;61682.00;5076538;28;20048;-71
2021/11/02 13:49:17;;;;;;;1.65;0.50;;;;;;;6.80;100.00;61681.66;5081084;28;20076;-71
2021/11/02 13:51:45;;;;;;;0.88;0.40;;;;;;;6.80;100.00;61681.06;5087178;28;20048;-72
2021/11/02 13:54:13;;;;;;;0.90;0.43;;;;;;;6.81;100.00;61681.84;5062801;28;20082;-71
2021/11/02 13:56:43;;;;;;;1.27;0.50;;;;;;;6.82;100.00;61682.78;5083272;28;20094;-71
2021/11/02 13:59:12;;;;;;;2.60;0.50;;;;;;;6.83;100.00;61683.06;5081648;28;20091;-71
2021/11/02 14:01:55;;;;;;;1.67;0.55;;;;;;;6.83;100.00;61683.16;5066418;28;20143;-72
2021/11/02 14:04:32;;;;;;;1.63;0.60;;;;;;;6.82;100.00;61682.78;5063471;28;20058;-72
2021/11/02 14:07:25;;;;;;;1.38;0.45;;;;;;;6.83;100.00;61683.16;5062930;28;20063;-72
2021/11/02 14:09:55;;;;;;;1.40;0.50;;;;;;;6.81;100.00;61681.84;5072448;28;20635;-72
2021/11/02 14:12:28;;;;;;;1.30;0.50;;;;;;;6.80;100.00;61680.81;5064072;28;20135;-72
2021/11/02 14:15:10;;;;;;;4.38;0.80;;;;;;;6.80;100.00;61680.50;5067245;28;20044;-71
2021/11/02 14:17:47;;;;;;;1.13;0.65;;;;;;;6.80;100.00;61681.03;5085258;28;20062;-71
2021/11/02 14:20:49;;;;;;;0.85;0.40;;;;;;;6.81;100.00;61681.69;5068505;28;20098;-71
2021/11/02 14:23:35;;;;;;;2.25;0.60;;;;;;;6.82;99.99;61682.50;5056614;28;20075;-71
2021/11/02 14:26:26;;;;;;;1.00;0.45;;;;;;;6.83;99.51;61683.84;5082079;28;20505;-72
2021/11/02 14:28:59;;;;;;;3.00;1.23;;;;;;;6.85;99.86;61685.94;5081488;28;20051;-71
2021/11/02 14:31:38;;;;;;;1.35;0.40;;;;;;;6.86;99.39;61687.16;5078235;28;20067;-72
2021/11/02 14:34:09;;;;;;;2.85;1.33;;;;;;;6.86;99.09;61686.75;5079652;28;20064;-72
2021/11/02 14:36:40;;;;;;;4.25;1.48;;;;;;;6.86;99.68;61687.44;5081636;28;20478;-72
2021/11/02 14:39:12;;;;;;;4.80;2.13;;;;;;;6.86;99.28;61687.28;5066647;28;20080;-71
2021/11/02 14:41:47;;;;;;;8.15;3.33;;;;;;;6.86;100.00;61686.91;5072530;28;20041;-71
2021/11/02 14:44:18;;;;;;;2.35;0.70;;;;;;;6.87;99.83;61688.31;5084745;28;20072;-71
2021/11/02 14:46:48;;;;;;;2.10;0.70;;;;;;;6.89;99.42;61691.22;5083316;28;20083;-72
2021/11/02 14:49:28;;;;;;;1.23;0.40;;;;;;;6.94;97.91;61695.72;5085275;28;20064;-72
2021/11/02 14:52:02;;;;;;;1.70;0.60;;;;;;;7.00;96.66;61702.09;5085478;28;20048;-72
2021/11/02 14:54:39;;;;;;;2.53;0.50;;;;;;;7.03;95.64;61705.66;5081898;28;20136;-72
2021/11/02 14:57:20;;;;;;;1.65;0.47;;;;;;;7.06;96.10;61708.53;5081486;28;20438;-72
2021/11/02 14:59:57;;;;;;;2.13;0.40;;;;;;;7.06;96.25;61708.97;5079476;28;20052;-72
2021/11/02 15:02:37;;;;;;;0.60;0.30;;;;;;;7.06;96.14;61708.97;5070923;28;20048;-72
2021/11/02 15:05:10;;;;;;;1.05;0.40;;;;;;;7.05;96.87;61707.59;5086572;28;20444;-72
2021/11/02 15:07:41;;;;;;;1.08;0.40;;;;;;;7.04;97.70;61706.88;5084416;28;20071;-72
2021/11/02 15:10:12;;;;;;;1.50;0.50;;;;;;;7.03;98.02;61706.25;5067979;28;20052;-72
2021/11/02 15:12:40;;;;;;;0.70;0.40;;;;;;;7.02;97.73;61704.56;5084546;28;20082;-72
2021/11/02 15:15:08;;;;;;;1.00;0.43;;;;;;;7.01;98.07;61703.47;5066108;28;20477;-72
2021/11/02 15:17:36;;;;;;;2.90;0.70;;;;;;;7.00;98.54;61702.41;5087889;28;20135;-72
2021/11/02 15:20:28;;;;;;;3.33;0.60;;;;;;;6.99;98.85;61701.34;5069632;28;20494;-72
2021/11/02 15:22:56;;;;;;;1.08;0.50;;;;;;;6.98;98.98;61700.06;5085023;28;20083;-73
2021/11/02 15:25:24;;;;;;;4.53;0.60;;;;;;;6.96;98.95;61698.72;5067227;28;20171;-72
2021/11/02 15:27:59;;;;;;;3.00;0.70;;;;;;;6.95;99.54;61696.66;5083088;28;20060;-72
2021/11/02 15:30:27;;;;;;;1.90;0.55;;;;;;;6.93;100.00;61694.31;5072438;28;20048;-72
2021/11/02 15:32:54;;;;;;;3.90;0.70;;;;;;;6.91;100.00;61692.50;5073283;28;20060;-73
2021/11/02 15:35:24;;;;;;;1.63;0.50;;;;;;;6.90;100.00;61691.25;5086130;28;20058;-72
2021/11/02 15:37:57;;;;;;;4.63;0.65;;;;;;;6.88;100.00;61689.63;5065754;28;20044;-73
2021/11/02 15:40:36;;;;;;;1.90;0.55;;;;;;;6.87;100.00;61688.00;5088666;28;20083;-73
2021/11/02 15:43:06;;;;;;;2.60;0.50;;;;;;;6.87;100.00;61687.41;5066876;28;20544;-74
2021/11/02 15:45:44;;;;;;;1.23;0.50;;;;;;;6.87;100.00;61688.00;5072050;28;20048;-73
2021/11/02 15:48:13;;;;;;;1.42;0.52;;;;;;;6.86;99.93;61686.91;5070832;28;20504;-73
2021/11/02 15:50:43;;;;;;;2.08;0.60;;;;;;;6.85;100.00;61686.38;5068774;28;20048;-74
2021/11/02 15:53:12;;;;;;;1.73;0.60;;;;;;;6.85;100.00;61686.09;5064777;28;20080;-73
2021/11/02 15:55:40;;;;;;;2.22;0.50;;;;;;;6.85;100.00;61686.13;5064441;28;20048;-73
2021/11/02 15:58:10;;;;;;;2.25;0.68;;;;;;;6.85;100.00;61686.03;5090722;28;20558;-74
2021/11/02 16:00:41;;;;;;;1.30;0.60;;;;;;;6.84;99.81;61685.47;5079599;28;20043;-73
2021/11/02 16:03:12;;;;;;;1.02;0.50;;;;;;;6.83;99.87;61684.66;5067261;28;20052;-74
2021/11/02 16:05:42;;;;;;;1.50;0.60;;;;;;;6.83;100.00;61684.72;5088375;28;20036;-73
2021/11/02 16:08:22;;;;;;;1.20;0.65;;;;;;;6.83;100.00;61684.59;5083613;28;20052;-73
2021/11/02 16:10:53;;;;;;;1.30;0.50;;;;;;;6.82;100.00;61684.06;5081708;28;20080;-73
2021/11/02 16:13:30;;;;;;;3.60;0.60;;;;;;;6.81;100.00;61682.84;5069454;28;20079;-73
2021/11/02 16:16:01;;;;;;;1.42;0.50;;;;;;;6.80;100.00;61681.81;5086045;28;20040;-73
2021/11/02 16:18:32;;;;;;;1.00;0.40;;;;;;;6.78;100.00;61680.34;5060695;28;20048;-72
2021/11/02 16:21:06;;;;;;;1.77;0.70;;;;;;;6.77;100.00;61678.69;5063580;28;20075;-73
2021/11/02 16:23:47;;;;;;;1.13;0.57;;;;;;;6.75;100.00;61676.91;5084052;28;20460;-73
2021/11/02 16:26:25;;;;;;;3.20;0.80;;;;;;;6.74;100.00;61675.69;5077113;28;20069;-73
2021/11/02 16:29:12;;;;;;;1.15;0.60;;;;;;;6.73;100.00;61674.50;5076914;28;20082;-73
2021/11/02 16:31:45;;;;;;;2.83;0.60;;;;;;;6.71;100.00;61672.88;5066502;28;20701;-73
2021/11/02 16:34:24;;;;;;;2.95;1.40;;;;;;;6.70;100.00;61671.88;5081050;28;20143;-73
2021/11/02 16:36:52;;;;;;;2.58;0.57;;;;;;;6.69;100.00;61671.38;5052639;28;20079;-72
2021/11/02 16:39:24;;;;;;;1.92;0.60;;;;;;;6.69;100.00;61670.56;5074534;28;20599;-73
2021/11/02 16:41:58;;;;;;;2.47;0.80;;;;;;;6.68;100.00;61670.16;5050967;28;20420;-72
2021/11/02 16:44:31;;;;;;;3.03;0.80;;;;;;;6.68;100.00;61669.47;5086208;28;20481;-72
2021/11/02 16:47:14;;;;;;;3.08;0.70;;;;;;;6.67;100.00;61669.09;5051482;28;20149;-72
2021/11/02 16:49:42;;;;;;;0.90;0.50;;;;;;;6.67;100.00;61668.88;5067319;28;20048;-73
2021/11/02 16:52:12;;;;;;;3.60;0.82;;;;;;;6.66;100.00;61668.09;5071482;28;20464;-73
2021/11/02 16:54:45;;;;;;;3.00;0.93;;;;;;;6.65;100.00;61666.97;5065733;28;20162;-72
2021/11/02 16:57:24;;;;;;;2.72;0.90;;;;;;;6.64;100.00;61666.03;5085251;28;20146;-72
2021/11/02 16:59:57;;;;;;;2.40;0.70;;;;;;;6.63;100.00;61665.47;5082190;28;20040;-72
2021/11/02 17:02:28;;;;;;;;;;;;;;;6.63;100.00;61664.63;5086259;28;20048;-72
2021/11/02 17:05:18;;;;;;;4.38;1.00;;;;;;;6.62;100.00;61663.66;5088586;28;19926;-72
2021/11/02 17:07:51;;;;;;;2.80;0.90;;;;;;;6.61;99.77;61662.13;5084279;28;20092;-72
2021/11/02 17:13:04;;;;;;;1.83;0.73;;;;;;;6.58;98.64;61659.50;5085157;28;20132;-72
2021/11/02 17:15:38;;;;;;;4.05;1.17;;;;;;;6.58;98.75;61658.84;5079317;28;20059;-73
2021/11/02 17:18:07;;;;;;;3.85;0.70;;;;;;;6.57;98.91;61658.03;5083224;28;20078;-73